Aviation Digital Data Service (ADDS)

Output produced by METARs form (2121 UTC 24 March 2019)
found at http://www.aviationweather.gov/metar/data/
 
TAF MKJP 241715Z 2418/2518 15010KT 9999 FEW022 
     BECMG 2501/2503 35005KT 
     BECMG 2514/2516 15010KT
       
TAF MKJS 241715Z 2418/2518 07015KT 9999 FEW022 
     TEMPO 2418/2422 8000 SHRA BKN018 
     BECMG 2501/2503 VRB03KT 
     BECMG 2514/2516 07015KT